.
WxDataArchive / Data Records for 2015-08-22
2015-08-21 August 2015 2015-08-23

Data Records for Saturday, 22 August 2015

Time	Temp	Chill	HIndex	Humid	Dewpt	 Wind 	HiWind	WindDir	Rain 	Barom
-----	----	-----	------	-----	-----	------	------	-------	-----	-----
00:00	62.0	62.0	62.0	85	57.4	0	0	---	0.00	30.091 
00:05	62.0	62.0	62.0	85	57.4	0	0	---	0.00	30.091 
00:10	62.0	62.0	62.0	86	57.8	0	0	---	0.00	30.091 
00:15	61.8	61.8	61.8	86	57.6	0	0	---	0.00	30.089 
00:20	61.6	61.6	61.6	86	57.4	0	0	---	0.00	30.089 
00:25	61.5	61.5	61.5	86	57.3	0	0	---	0.00	30.089 
00:30	61.5	61.5	61.5	87	57.6	0	0	---	0.00	30.092 
00:35	61.3	61.3	61.3	87	57.4	0	0	---	0.00	30.092 
00:40	61.2	61.2	61.2	87	57.3	0	0	---	0.00	30.092 
00:45	61.0	61.0	61.0	88	57.4	0	0	---	0.00	30.095 
00:50	61.0	61.0	61.0	88	57.4	0	0	---	0.00	30.095 
00:55	60.9	60.9	60.9	88	57.3	0	0	---	0.00	30.095 
01:00	60.7	60.7	60.7	88	57.1	0	0	---	0.00	30.092 
01:05	60.5	60.5	60.5	88	56.9	0	0	---	0.00	30.092 
01:10	60.5	60.5	60.5	88	56.9	0	0	---	0.00	30.092 
01:15	60.4	60.4	60.4	88	56.8	0	0	---	0.00	30.098 
01:20	60.4	60.4	60.4	88	56.8	0	0	---	0.00	30.098 
01:25	60.2	60.2	60.2	89	56.9	0	0	---	0.00	30.098 
01:30	60.1	60.1	60.1	89	56.8	0	0	---	0.00	30.097 
01:35	60.1	60.1	60.1	89	56.8	0	0	---	0.00	30.097 
01:40	59.9	59.9	59.9	89	56.6	0	0	---	0.00	30.097 
01:45	59.9	59.9	59.9	89	56.6	0	0	---	0.00	30.093 
01:50	59.8	59.8	59.8	89	56.5	0	0	---	0.00	30.093 
01:55	59.8	59.8	59.8	90	56.9	0	0	---	0.00	30.093 
02:00	59.8	59.8	59.8	90	56.9	0	0	---	0.00	30.092 
02:05	59.6	59.6	59.6	90	56.7	0	0	---	0.00	30.092 
02:10	59.6	59.6	59.6	90	56.7	0	0	---	0.00	30.092 
02:15	59.6	59.6	59.6	91	57.0	0	0	---	0.00	30.089 
02:20	59.6	59.6	59.6	91	57.0	0	0	---	0.00	30.089 
02:25	59.6	59.6	59.6	91	57.0	0	0	---	0.00	30.089 
02:30	59.5	59.5	59.5	91	56.9	0	0	---	0.00	30.092 
02:35	59.5	59.5	59.5	91	56.9	0	0	---	0.00	30.092 
02:40	59.3	59.3	59.3	91	56.7	0	0	---	0.00	30.092 
02:45	59.3	59.3	59.3	91	56.7	0	0	---	0.00	30.093 
02:50	59.2	59.2	59.2	92	56.9	0	0	---	0.00	30.093 
02:55	59.2	59.2	59.2	92	56.9	0	0	---	0.00	30.093 
03:00	59.0	59.0	59.0	92	56.7	0	0	---	0.00	30.093 
03:05	59.0	59.0	59.0	92	56.7	0	0	---	0.00	30.093 
03:10	58.9	58.9	58.9	92	56.6	0	0	---	0.00	30.093 
03:15	58.9	58.9	58.9	92	56.6	0	0	---	0.00	30.094 
03:20	58.9	58.9	58.9	92	56.6	0	0	---	0.00	30.094 
03:25	58.7	58.7	58.7	92	56.4	0	0	---	0.00	30.094 
03:30	58.7	58.7	58.7	92	56.4	0	0	---	0.00	30.099 
03:35	58.6	58.6	58.6	92	56.3	0	0	---	0.00	30.099 
03:40	58.6	58.6	58.6	92	56.3	0	0	---	0.00	30.099 
03:45	58.6	58.6	58.6	92	56.3	0	0	---	0.00	30.098 
03:50	58.4	58.4	58.4	92	56.1	0	0	---	0.00	30.098 
03:55	58.4	58.4	58.4	92	56.1	0	0	---	0.00	30.098 
04:00	58.3	58.3	58.3	93	56.3	0	0	---	0.00	30.099 
04:05	58.3	58.3	58.3	93	56.3	0	0	---	0.00	30.099 
04:10	58.3	58.3	58.3	93	56.3	0	0	---	0.00	30.099 
04:15	58.1	58.1	58.1	93	56.1	0	0	---	0.00	30.098 
04:20	58.1	58.1	58.1	93	56.1	0	0	---	0.00	30.098 
04:25	58.1	58.1	58.1	93	56.1	0	0	---	0.00	30.098 
04:30	58.0	58.0	58.0	93	56.0	0	0	---	0.00	30.098 
04:35	58.0	58.0	58.0	93	56.0	0	0	---	0.00	30.098 
04:40	57.8	57.8	57.8	93	55.8	0	0	---	0.00	30.098 
04:45	57.8	57.8	57.8	93	55.8	0	0	---	0.00	30.099 
04:50	57.6	57.6	57.6	93	55.6	0	0	---	0.00	30.099 
04:55	57.6	57.6	57.6	93	55.6	0	0	---	0.00	30.099 
05:00	57.5	57.5	57.5	93	55.5	0	0	---	0.00	30.099 
05:05	57.5	57.5	57.5	93	55.5	0	0	---	0.00	30.099 
05:10	57.3	57.3	57.3	93	55.3	0	0	---	0.00	30.099 
05:15	57.2	57.2	57.2	93	55.2	0	0	---	0.00	30.102 
05:20	57.2	57.2	57.2	93	55.2	0	0	---	0.00	30.102 
05:25	57.2	57.2	57.2	93	55.2	0	0	---	0.00	30.102 
05:30	57.2	57.2	57.2	94	55.5	0	0	---	0.00	30.103 
05:35	57.2	57.2	57.2	94	55.5	0	0	---	0.00	30.103 
05:40	57.0	57.0	57.0	94	55.3	0	0	---	0.00	30.103 
05:45	57.0	57.0	57.0	94	55.3	0	0	---	0.00	30.104 
05:50	57.0	57.0	57.0	94	55.3	0	0	---	0.00	30.104 
05:55	57.0	57.0	57.0	94	55.3	0	0	---	0.00	30.104 
06:00	57.0	57.0	57.0	94	55.3	0	0	---	0.00	30.107 
06:05	57.0	57.0	57.0	94	55.3	0	0	---	0.00	30.107 
06:10	57.0	57.0	57.0	94	55.3	0	0	---	0.00	30.107 
06:15	57.2	57.2	57.2	94	55.5	0	0	---	0.00	30.107 
06:20	57.2	57.2	57.2	94	55.5	0	0	---	0.00	30.107 
06:25	57.2	57.2	57.2	94	55.5	0	0	---	0.00	30.107 
06:30	57.0	57.0	57.0	94	55.3	0	0	---	0.00	30.108 
06:35	57.0	57.0	57.0	94	55.3	0	0	---	0.00	30.108 
06:40	56.9	56.9	56.9	94	55.2	0	0	---	0.00	30.108 
06:45	56.9	56.9	56.9	94	55.2	0	0	---	0.00	30.113 
06:50	56.7	56.7	56.7	94	55.0	0	0	---	0.00	30.113 
06:55	56.7	56.7	56.7	94	55.0	0	0	---	0.00	30.113 
07:00	56.7	56.7	56.7	94	55.0	0	0	---	0.00	30.118 
07:05	56.6	56.6	56.6	94	54.9	0	0	---	0.00	30.118 
07:10	56.6	56.6	56.6	94	54.9	0	0	---	0.00	30.118 
07:15	56.6	56.6	56.6	94	54.9	0	0	---	0.00	30.119 
07:20	56.5	56.5	56.5	94	54.8	0	0	---	0.00	30.119 
07:25	56.5	56.5	56.5	94	54.8	0	0	---	0.00	30.119 
07:30	56.6	56.6	56.6	95	55.2	0	0	---	0.00	30.122 
07:35	56.7	56.7	56.7	95	55.3	0	0	---	0.00	30.122 
07:40	56.9	56.9	56.9	95	55.5	0	0	---	0.00	30.122 
07:45	56.9	56.9	56.9	95	55.5	0	0	---	0.00	30.125 
07:50	57.0	57.0	57.0	95	55.6	0	0	---	0.00	30.125 
07:55	57.3	57.3	57.3	95	55.9	0	0	---	0.00	30.125 
08:00	57.6	57.6	57.6	95	56.2	0	0	---	0.00	30.126 
08:05	58.3	58.3	58.3	95	56.9	0	0	---	0.00	30.126 
08:10	59.2	59.2	59.2	96	58.1	0	0	---	0.00	30.126 
08:15	60.1	60.1	60.1	96	59.0	0	0	---	0.00	30.131 
08:20	60.9	60.9	60.9	95	59.5	0	2	90	0.00	30.131 
08:25	61.5	61.5	61.5	93	59.5	0	2	90	0.00	30.131 
08:30	62.4	62.4	62.4	91	59.7	0	0	---	0.00	30.131 
08:35	63.2	63.2	63.2	87	59.3	0	0	---	0.00	30.131 
08:40	64.2	64.2	64.2	84	59.3	0	1	90	0.00	30.131 
08:45	64.8	64.8	64.8	81	58.8	0	1	90	0.00	30.130 
08:50	65.3	65.3	65.3	79	58.6	0	1	90	0.00	30.130 
08:55	65.5	65.5	65.5	78	58.5	0	1	90	0.00	30.130 
09:00	65.5	65.5	65.5	77	58.1	0	1	90	0.00	30.133 
09:05	65.6	65.6	65.6	74	57.1	0	1	90	0.00	30.133 
09:10	65.8	65.8	65.8	73	56.9	0	1	90	0.00	30.133 
09:15	66.0	66.0	66.0	73	57.1	0	1	90	0.00	30.138 
09:20	66.1	66.1	66.1	74	57.6	0	2	90	0.00	30.138 
09:25	66.1	66.1	66.1	73	57.2	0	2	90	0.00	30.138 
09:30	66.3	66.3	66.3	73	57.4	0	1	90	0.00	30.136 
09:35	66.6	66.6	66.6	73	57.7	0	1	90	0.00	30.136 
09:40	67.1	67.1	67.1	73	58.1	0	1	90	0.00	30.136 
09:45	67.4	67.4	67.4	71	57.7	0	1	90	0.00	30.141 
09:50	67.8	67.8	67.8	69	57.2	0	4	90	0.00	30.141 
09:55	68.1	68.1	68.1	69	57.5	0	3	90	0.00	30.141 
10:00	68.4	68.4	68.4	69	57.8	0	2	90	0.00	30.138 
10:05	68.8	68.8	68.8	67	57.4	0	2	90	0.00	30.138 
10:10	68.9	68.9	68.9	68	57.9	1	4	90	0.00	30.138 
10:15	69.4	69.4	69.4	65	57.1	0	1	90	0.00	30.139 
10:20	70.3	70.3	70.3	64	57.5	1	3	90	0.00	30.139 
10:25	71.3	71.3	71.3	62	57.6	0	1	90	0.00	30.139 
10:30	72.3	72.3	72.3	62	58.5	0	2	90	0.00	30.135 
10:35	72.8	72.8	72.8	61	58.6	1	4	90	0.00	30.135 
10:40	73.5	73.5	73.5	60	58.7	0	2	90	0.00	30.135 
10:45	73.7	73.7	73.7	59	58.5	1	5	90	0.00	30.131 
10:50	74.0	74.0	74.0	59	58.7	1	3	90	0.00	30.131 
10:55	74.2	74.2	74.2	58	58.5	1	3	90	0.00	30.131 
11:00	74.6	74.6	74.6	57	58.3	1	4	90	0.00	30.131 
11:05	74.9	74.9	74.9	55	57.6	1	2	90	0.00	30.131 
11:10	75.4	75.4	77.8	54	57.6	0	2	90	0.00	30.131 
11:15	75.8	75.8	78.0	54	57.9	1	4	90	0.00	30.131 
11:20	76.0	76.0	78.1	51	56.5	0	2	90	0.00	30.131 
11:25	76.5	76.5	78.4	52	57.5	1	5	90	0.00	30.131 
11:30	76.7	76.7	78.4	51	57.2	1	4	90	0.00	30.132 
11:35	76.8	76.8	78.5	51	57.3	1	3	90	0.00	30.132 
11:40	77.0	77.0	78.5	48	55.8	1	2	90	0.00	30.132 
11:45	77.4	77.4	78.8	49	56.7	1	3	90	0.00	30.141 
11:50	77.6	77.6	78.9	48	56.3	1	4	90	0.00	30.141 
11:55	77.4	77.4	78.8	48	56.1	1	3	90	0.00	30.141 
12:00	77.4	77.4	78.7	47	55.6	1	4	90	0.00	30.142 
12:05	77.6	77.6	78.9	48	56.3	0	4	90	0.00	30.142 
12:10	78.1	78.1	79.0	45	55.0	0	2	90	0.00	30.142 
12:15	78.6	78.6	79.3	44	54.8	1	3	90	0.00	30.137 
12:20	79.0	79.0	79.7	46	56.4	0	3	90	0.00	30.137 
12:25	79.2	79.2	79.5	42	54.1	1	4	90	0.00	30.137 
12:30	79.2	79.2	79.6	43	54.7	1	3	0	0.00	30.130 
12:35	79.2	79.2	79.6	43	54.7	1	4	135	0.00	30.130 
12:40	79.2	79.2	79.6	43	54.7	2	10	112	0.00	30.130 
12:45	78.5	78.5	79.2	44	54.7	2	7	112	0.00	30.127 
12:50	78.5	78.5	79.2	43	54.1	1	4	90	0.00	30.127 
12:55	78.5	78.5	79.4	46	56.0	1	5	68	0.00	30.127 
13:00	78.5	78.5	79.2	44	54.7	1	6	112	0.00	30.119 
13:05	78.3	78.3	79.2	46	55.8	2	5	68	0.00	30.119 
13:10	78.6	78.6	79.5	48	57.2	1	6	90	0.00	30.119 
13:15	78.6	78.6	79.4	46	56.1	1	4	90	0.00	30.116 
13:20	78.8	78.8	79.5	45	55.6	1	7	68	0.00	30.116 
13:25	78.6	78.6	79.4	46	56.1	2	10	68	0.00	30.116 
13:30	78.3	78.3	79.1	43	53.9	3	7	90	0.00	30.114 
13:35	77.7	77.7	78.9	46	55.2	2	5	68	0.00	30.114 
13:40	78.1	78.1	78.9	43	53.8	1	5	68	0.00	30.114 
13:45	78.1	78.1	79.0	44	54.4	2	6	90	0.00	30.108 
13:50	77.7	77.7	78.9	46	55.2	2	7	68	0.00	30.108 
13:55	78.1	78.1	79.0	45	55.0	2	6	68	0.00	30.108 
14:00	78.5	78.5	79.4	46	56.0	2	5	90	0.00	30.105 
14:05	78.8	78.8	79.3	42	53.7	1	3	90	0.00	30.105 
14:10	79.0	79.0	79.6	45	55.8	1	5	90	0.00	30.105 
14:15	78.6	78.6	79.2	42	53.6	2	6	112	0.00	30.098 
14:20	78.3	78.3	79.2	45	55.2	2	9	90	0.00	30.098 
14:25	78.5	78.5	79.2	44	54.7	2	6	90	0.00	30.098 
14:30	78.6	78.6	79.2	43	54.2	2	4	68	0.00	30.089 
14:35	78.6	78.6	79.2	42	53.6	2	6	90	0.00	30.089 
14:40	78.8	78.8	79.2	40	52.4	2	6	90	0.00	30.089 
14:45	79.0	79.0	79.4	42	53.9	1	3	90	0.00	30.085 
14:50	79.6	79.6	79.7	41	53.8	1	4	135	0.00	30.085 
14:55	79.4	79.4	79.5	39	52.3	2	5	90	0.00	30.085 
15:00	79.0	79.0	79.2	39	51.9	2	6	68	0.00	30.081 
15:05	79.0	79.0	79.2	39	51.9	2	5	90	0.00	30.081 
15:10	79.6	79.6	79.7	40	53.1	0	2	90	0.00	30.081 
15:15	79.8	79.8	79.7	39	52.6	1	4	90	0.00	30.079 
15:20	79.8	79.8	79.6	38	51.9	1	4	90	0.00	30.079 
15:25	79.4	79.4	79.6	41	53.6	0	2	112	0.00	30.079 
15:30	79.2	79.2	79.7	44	55.4	1	3	112	0.00	30.071 
15:35	79.2	79.2	79.4	40	52.8	1	4	112	0.00	30.071 
15:40	79.6	79.6	79.7	40	53.1	0	2	112	0.00	30.071 
15:45	79.8	79.8	79.8	40	53.3	1	4	90	0.00	30.072 
15:50	79.6	79.6	79.7	41	53.8	1	4	90	0.00	30.072 
15:55	79.6	79.6	79.6	39	52.4	1	4	90	0.00	30.072 
16:00	79.4	79.4	79.5	40	52.9	2	5	90	0.00	30.067 
16:05	79.2	79.2	79.5	41	53.4	1	4	90	0.00	30.067 
16:10	78.8	78.8	79.2	40	52.4	1	4	90	0.00	30.067 
16:15	78.6	78.6	79.0	40	52.2	1	3	90	0.00	30.070 
16:20	78.8	78.8	79.2	40	52.4	1	7	90	0.00	30.070 
16:25	78.6	78.6	79.1	41	52.9	1	5	90	0.00	30.070 
16:30	78.6	78.6	79.2	43	54.2	1	4	90	0.00	30.057 
16:35	78.6	78.6	79.2	42	53.6	0	2	90	0.00	30.057 
16:40	78.8	78.8	79.4	43	54.4	1	3	68	0.00	30.057 
16:45	78.6	78.6	79.2	43	54.2	2	5	68	0.00	30.053 
16:50	78.8	78.8	79.3	42	53.7	1	4	90	0.00	30.053 
16:55	78.8	78.8	79.2	40	52.4	0	2	90	0.00	30.053 
17:00	79.0	79.0	79.3	40	52.6	1	3	90	0.00	30.049 
17:05	79.0	79.0	79.4	42	53.9	1	3	135	0.00	30.049 
17:10	79.0	79.0	79.4	42	53.9	0	3	135	0.00	30.049 
17:15	79.0	79.0	79.4	41	53.3	0	2	135	0.00	30.038 
17:20	79.0	79.0	79.3	40	52.6	0	2	135	0.00	30.038 
17:25	78.8	78.8	79.2	41	53.1	2	6	68	0.00	30.038 
17:30	78.6	78.6	79.2	43	54.2	0	3	68	0.00	30.038 
17:35	78.6	78.6	79.0	40	52.2	0	2	112	0.00	30.038 
17:40	78.8	78.8	79.2	41	53.1	0	1	112	0.00	30.038 
17:45	78.8	78.8	79.3	42	53.7	1	3	112	0.00	30.035 
17:50	78.6	78.6	79.1	41	52.9	0	2	112	0.00	30.035 
17:55	78.3	78.3	78.9	41	52.6	0	2	112	0.00	30.035 
18:00	77.9	77.9	78.8	43	53.6	0	2	112	0.00	30.033 
18:05	77.7	77.7	78.7	43	53.4	0	2	135	0.00	30.033 
18:10	77.6	77.6	78.7	43	53.3	1	5	45	0.00	30.033 
18:15	77.4	77.4	78.6	44	53.8	2	5	68	0.00	30.031 
18:20	77.2	77.2	78.5	43	52.9	1	4	68	0.00	30.031 
18:25	77.2	77.2	78.5	44	53.6	0	2	68	0.00	30.031 
18:30	77.0	77.0	78.4	45	54.0	1	3	68	0.00	30.025 
18:35	77.0	77.0	78.4	44	53.4	0	2	68	0.00	30.025 
18:40	77.0	77.0	78.4	44	53.4	0	2	68	0.00	30.025 
18:45	77.0	77.0	78.4	45	54.0	0	3	68	0.00	30.025 
18:50	76.8	76.8	78.3	43	52.6	1	2	68	0.00	30.025 
18:55	76.7	76.7	78.3	45	53.7	1	3	68	0.00	30.025 
19:00	76.5	76.5	78.2	46	54.2	1	2	68	0.00	30.023 
19:05	76.1	76.1	78.0	46	53.8	1	3	68	0.00	30.023 
19:10	76.0	76.0	78.0	45	53.1	1	2	68	0.00	30.023 
19:15	75.8	75.8	77.9	46	53.5	0	1	68	0.00	30.021 
19:20	75.6	75.6	77.9	47	53.9	0	0	---	0.00	30.021 
19:25	75.6	75.6	77.8	46	53.3	1	5	68	0.00	30.021 
19:30	75.6	75.6	77.8	46	53.3	0	2	68	0.00	30.013 
19:35	75.6	75.6	77.9	47	53.9	0	1	68	0.00	30.013 
19:40	75.4	75.4	77.8	47	53.7	0	1	68	0.00	30.013 
19:45	75.3	75.3	77.7	48	54.2	0	1	68	0.00	30.013 
19:50	74.9	74.9	74.9	48	53.9	0	1	68	0.00	30.013 
19:55	74.7	74.7	74.7	49	54.3	0	0	---	0.00	30.013 
20:00	74.6	74.6	74.6	49	54.2	0	1	68	0.00	30.015 
20:05	74.2	74.2	74.2	50	54.3	0	0	---	0.00	30.015 
20:10	73.9	73.9	73.9	51	54.6	0	0	---	0.00	30.015 
20:15	73.5	73.5	73.5	53	55.3	0	0	---	0.00	30.008 
20:20	73.2	73.2	73.2	54	55.5	0	0	---	0.00	30.008 
20:25	72.8	72.8	72.8	54	55.2	0	0	---	0.00	30.008 
20:30	72.3	72.3	72.3	55	55.2	0	0	---	0.00	30.009 
20:35	72.0	72.0	72.0	56	55.4	0	0	---	0.00	30.009 
20:40	71.6	71.6	71.6	57	55.5	0	0	---	0.00	30.009 
20:45	71.3	71.3	71.3	58	55.7	0	0	---	0.00	30.005 
20:50	70.8	70.8	70.8	59	55.7	0	0	---	0.00	30.005 
20:55	70.4	70.4	70.4	59	55.4	0	0	---	0.00	30.005 
21:00	70.1	70.1	70.1	61	56.0	0	0	---	0.00	30.005 
21:05	69.8	69.8	69.8	62	56.2	0	0	---	0.00	30.005 
21:10	69.6	69.6	69.6	62	56.0	0	0	---	0.00	30.005 
21:15	69.3	69.3	69.3	63	56.2	0	0	---	0.00	30.004 
21:20	69.1	69.1	69.1	64	56.4	0	0	---	0.00	30.004 
21:25	68.9	68.9	68.9	64	56.2	0	0	---	0.00	30.004 
21:30	68.8	68.8	68.8	64	56.1	0	0	---	0.00	29.999 
21:35	68.6	68.6	68.6	64	55.9	0	0	---	0.00	29.999 
21:40	68.4	68.4	68.4	64	55.7	0	0	---	0.00	29.999 
21:45	68.4	68.4	68.4	65	56.2	0	0	---	0.00	30.003 
21:50	68.4	68.4	68.4	65	56.2	0	0	---	0.00	30.003 
21:55	68.3	68.3	68.3	65	56.1	0	0	---	0.00	30.003 
22:00	68.3	68.3	68.3	66	56.5	0	0	---	0.00	29.995 
22:05	68.1	68.1	68.1	66	56.3	0	0	---	0.00	29.995 
22:10	67.9	67.9	67.9	66	56.1	0	0	---	0.00	29.995 
22:15	67.8	67.8	67.8	67	56.4	0	0	---	0.00	29.991 
22:20	67.8	67.8	67.8	67	56.4	0	0	---	0.00	29.991 
22:25	67.6	67.6	67.6	67	56.2	0	0	---	0.00	29.991 
22:30	67.6	67.6	67.6	69	57.1	0	0	---	0.00	30.002 
22:35	67.6	67.6	67.6	69	57.1	0	0	---	0.00	30.002 
22:40	67.4	67.4	67.4	69	56.9	0	0	---	0.00	30.002 
22:45	67.4	67.4	67.4	70	57.3	0	0	---	0.00	30.002 
22:50	67.3	67.3	67.3	70	57.2	0	0	---	0.00	30.002 
22:55	67.1	67.1	67.1	71	57.4	0	0	---	0.00	30.002 
23:00	66.9	66.9	66.9	73	58.0	0	0	---	0.00	30.002 
23:05	66.8	66.8	66.8	73	57.9	0	0	---	0.00	30.002 
23:10	66.6	66.6	66.6	73	57.7	0	0	---	0.00	30.002 
23:15	66.4	66.4	66.4	73	57.5	0	0	---	0.00	30.013 
23:20	66.3	66.3	66.3	74	57.8	0	0	---	0.00	30.013 
23:25	66.1	66.1	66.1	74	57.6	0	0	---	0.00	30.013 
23:30	66.1	66.1	66.1	75	57.9	0	0	---	0.00	30.004 
23:35	66.0	66.0	66.0	76	58.2	0	0	---	0.00	30.004 
23:40	65.8	65.8	65.8	76	58.0	0	0	---	0.00	30.004 
23:45	65.8	65.8	65.8	77	58.4	0	0	---	0.00	30.005 
23:50	65.8	65.8	65.8	79	59.1	0	0	---	0.00	30.005 
23:55	65.8	65.8	65.8	79	59.1	0	0	---	0.00	30.005 

CoCoRaHS
IN-AL-39
A2 Web Hosting
Creative Commons License
GoDaddy
search engine by freefind advanced

loaded 2018-11-15 14:21:09 • last modified 2010-11-18 10:43:29
Privacy PolicyDisclaimer
• wx.awcolley.com is powered by PmWiki v.2002016 •
• all content (unless otherwise noted) © 2018 A W Colley